createdAt,value
2018-07-06T00:01:58.651Z,72.80
2018-07-06T00:04:37.856Z,73.00
2018-07-06T00:07:16.863Z,74.60
2018-07-06T00:09:55.948Z,75.00
2018-07-06T00:12:34.850Z,76.20
2018-07-06T00:15:14.059Z,77.90
2018-07-06T00:17:53.139Z,79.00
2018-07-06T00:20:32.314Z,79.80
2018-07-06T00:23:11.402Z,80.50
2018-07-06T00:25:51.185Z,80.70
2018-07-06T00:28:30.244Z,80.80
2018-07-06T00:31:09.171Z,80.00
2018-07-06T00:33:48.280Z,82.00
2018-07-06T00:36:27.240Z,83.70
2018-07-06T00:39:06.395Z,84.60
2018-07-06T00:44:19.786Z,87.50
2018-07-06T00:46:58.747Z,88.60
2018-07-06T00:49:37.804Z,88.60
2018-07-06T00:52:16.831Z,89.60
2018-07-06T00:54:56.163Z,89.30
2018-07-06T00:57:39.651Z,90.00
2018-07-06T01:00:19.151Z,90.50
2018-07-06T01:05:31.344Z,92.40
2018-07-06T01:08:10.283Z,92.70
2018-07-06T01:10:49.367Z,92.90
2018-07-06T01:13:28.493Z,93.10
2018-07-06T01:16:07.622Z,93.60
2018-07-06T01:18:46.684Z,94.10
2018-07-06T01:21:25.611Z,93.80
2018-07-06T01:24:04.788Z,94.30
2018-07-06T01:26:43.843Z,94.90
2018-07-06T01:34:29.257Z,95.90
2018-07-06T01:37:08.467Z,96.30
2018-07-06T01:39:47.571Z,96.40
2018-07-06T01:42:26.496Z,96.60
2018-07-06T01:45:05.376Z,96.60
2018-07-06T01:47:44.849Z,96.70
2018-07-06T01:50:23.980Z,96.80
2018-07-06T01:53:03.251Z,97.20
2018-07-06T01:55:42.291Z,97.50
2018-07-06T01:58:21.489Z,97.70
2018-07-06T02:03:33.979Z,97.60
2018-07-06T02:06:13.135Z,97.90
2018-07-06T02:08:52.089Z,97.70
2018-07-06T02:11:31.436Z,97.70
2018-07-06T02:14:12.233Z,97.80
2018-07-06T02:16:51.315Z,97.90
2018-07-06T02:19:30.381Z,97.70
2018-07-06T02:22:09.543Z,97.80
2018-07-06T02:24:48.582Z,97.90
2018-07-06T02:27:27.975Z,98.30
2018-07-06T02:32:40.697Z,99.10
2018-07-06T02:35:20.034Z,99.30
2018-07-06T02:37:59.504Z,99.80
2018-07-06T02:40:38.766Z,99.70
2018-07-06T02:43:18.316Z,99.90
2018-07-06T02:45:57.413Z,99.90
2018-07-06T02:48:36.709Z,99.90
2018-07-06T02:51:16.079Z,99.90
2018-07-06T02:53:55.415Z,99.90
2018-07-06T02:56:35.008Z,99.90
2018-07-06T02:59:14.390Z,99.90
2018-07-06T03:01:53.527Z,99.90
2018-07-06T03:04:32.723Z,99.90
2018-07-06T03:07:12.018Z,99.90
2018-07-06T03:09:51.232Z,99.90
2018-07-06T03:12:30.322Z,99.90
2018-07-06T03:15:09.479Z,99.90
2018-07-06T03:17:48.683Z,99.90
2018-07-06T03:20:27.921Z,99.90
2018-07-06T03:23:07.297Z,99.90
2018-07-06T03:25:46.298Z,99.90
2018-07-06T03:28:25.779Z,99.90
2018-07-06T03:31:04.880Z,99.90
2018-07-06T03:33:44.151Z,99.90
2018-07-06T03:38:56.783Z,99.90
2018-07-06T03:41:35.955Z,99.90
2018-07-06T03:44:15.298Z,99.90
2018-07-06T03:46:54.805Z,99.90
2018-07-06T03:49:34.073Z,99.90
2018-07-06T03:52:13.345Z,99.90
2018-07-06T03:54:54.817Z,99.90
2018-07-06T03:57:34.184Z,99.90
2018-07-06T04:00:13.438Z,99.90
2018-07-06T04:02:52.691Z,99.90
2018-07-06T04:05:32.169Z,99.90
2018-07-06T04:08:11.373Z,99.90
2018-07-06T04:10:50.580Z,99.90
2018-07-06T04:13:29.805Z,99.90
2018-07-06T04:16:09.054Z,99.90
2018-07-06T04:18:48.135Z,99.90
2018-07-06T04:24:01.269Z,99.90
2018-07-06T04:26:40.668Z,99.90
2018-07-06T04:29:19.682Z,99.90
2018-07-06T04:31:58.933Z,99.90
2018-07-06T04:34:38.071Z,99.90
2018-07-06T04:37:17.381Z,99.90
2018-07-06T04:39:56.509Z,99.90
2018-07-06T04:42:35.889Z,99.90
2018-07-06T04:45:15.152Z,99.90
2018-07-06T04:47:54.474Z,99.90
2018-07-06T04:50:33.565Z,99.90
2018-07-06T04:53:12.618Z,99.90
2018-07-06T04:55:51.808Z,99.90
2018-07-06T04:58:30.963Z,99.90
2018-07-06T05:01:10.294Z,99.90
2018-07-06T05:03:49.277Z,99.90
2018-07-06T05:06:28.656Z,99.90
2018-07-06T05:09:08.174Z,99.90
2018-07-06T05:11:47.494Z,99.90
2018-07-06T05:14:26.695Z,99.90
2018-07-06T05:17:05.830Z,99.90
2018-07-06T05:19:45.296Z,99.90
2018-07-06T05:22:24.384Z,99.90
2018-07-06T05:25:03.365Z,99.90
2018-07-06T05:27:43.130Z,99.90
2018-07-06T05:30:22.963Z,99.90
2018-07-06T05:33:01.944Z,99.90
2018-07-06T05:35:41.196Z,99.90
2018-07-06T05:40:53.636Z,99.90
2018-07-06T05:43:32.572Z,99.90
2018-07-06T05:46:11.811Z,99.40
2018-07-06T05:48:50.960Z,98.80
2018-07-06T05:54:03.203Z,99.10
2018-07-06T05:56:42.404Z,98.00
2018-07-06T05:59:21.339Z,97.00
2018-07-06T06:02:00.421Z,95.60
2018-07-06T06:04:39.366Z,94.30
2018-07-06T06:07:18.540Z,93.70
2018-07-06T06:12:13.975Z,93.60
2018-07-06T06:14:41.757Z,93.50
2018-07-06T06:17:09.539Z,92.70
2018-07-06T06:19:37.319Z,92.00
2018-07-06T06:22:05.235Z,92.60
2018-07-06T06:27:00.635Z,92.30
2018-07-06T06:29:29.110Z,92.70
2018-07-06T06:31:57.000Z,92.40
2018-07-06T06:34:25.008Z,90.70
2018-07-06T06:36:52.776Z,89.80
2018-07-06T06:39:20.574Z,90.00
2018-07-06T06:41:48.445Z,90.10
2018-07-06T06:44:16.323Z,91.30
2018-07-06T06:49:11.941Z,92.10
2018-07-06T06:51:39.768Z,92.00
2018-07-06T06:54:07.663Z,91.50
2018-07-06T06:56:35.479Z,91.70
2018-07-06T06:59:03.346Z,90.70
2018-07-06T07:03:59.052Z,86.10
2018-07-06T07:08:54.739Z,84.30
2018-07-06T07:11:22.488Z,83.50
2018-07-06T07:13:50.561Z,84.80
2018-07-06T07:18:46.107Z,80.60
2018-07-06T07:21:13.992Z,79.80
2018-07-06T07:23:41.798Z,78.80
2018-07-06T07:26:09.607Z,76.00
2018-07-06T07:28:37.494Z,74.80
2018-07-06T07:31:05.320Z,73.10
2018-07-06T07:33:33.151Z,71.60
2018-07-06T07:36:01.224Z,70.00
2018-07-06T07:40:56.671Z,65.90
2018-07-06T07:45:52.132Z,68.90
2018-07-06T07:48:20.315Z,71.40
2018-07-06T07:50:59.419Z,73.40
2018-07-06T07:53:38.551Z,72.10
2018-07-06T07:56:06.405Z,73.10
2018-07-06T07:58:34.255Z,72.80
2018-07-06T08:03:29.775Z,71.40
2018-07-06T08:05:57.548Z,69.40
2018-07-06T08:08:25.327Z,71.30
2018-07-06T08:10:53.088Z,71.90
2018-07-06T08:13:20.960Z,72.00
2018-07-06T08:15:49.924Z,69.70
2018-07-06T08:18:17.771Z,71.20
2018-07-06T08:20:45.527Z,70.10
2018-07-06T08:23:13.265Z,68.50
2018-07-06T08:25:41.187Z,69.10
2018-07-06T08:28:08.944Z,69.90
2018-07-06T08:30:36.663Z,69.70
2018-07-06T08:33:04.408Z,70.00
2018-07-06T08:35:43.539Z,68.80
2018-07-06T08:40:39.000Z,63.90
2018-07-06T08:43:06.747Z,63.30
2018-07-06T08:45:35.108Z,65.90
2018-07-06T08:50:31.622Z,66.70
2018-07-06T08:53:00.255Z,66.30
2018-07-06T08:55:28.681Z,66.80
2018-07-06T08:57:57.675Z,66.50
2018-07-06T09:00:26.146Z,64.70
2018-07-06T09:05:22.463Z,66.30
2018-07-06T09:07:50.511Z,65.40
2018-07-06T09:10:18.526Z,64.50
2018-07-06T09:12:46.476Z,65.70
2018-07-06T09:15:14.409Z,63.20
2018-07-06T09:20:11.372Z,62.50
2018-07-06T09:22:39.343Z,61.40
2018-07-06T09:25:08.240Z,61.90
2018-07-06T09:27:36.291Z,60.70
2018-07-06T09:30:04.498Z,59.80
2018-07-06T09:32:32.656Z,57.10
2018-07-06T09:37:28.781Z,49.50
2018-07-06T09:42:24.829Z,49.10
2018-07-06T09:44:52.982Z,50.70
2018-07-06T09:47:20.979Z,49.00
2018-07-06T09:49:49.122Z,48.00
2018-07-06T09:52:17.505Z,48.20
2018-07-06T09:54:45.983Z,49.00
2018-07-06T09:57:14.267Z,49.30
2018-07-06T09:59:42.661Z,49.70
2018-07-06T10:02:10.735Z,48.50
2018-07-06T10:04:38.828Z,47.90
2018-07-06T10:07:06.838Z,44.30
2018-07-06T10:09:34.802Z,38.80
2018-07-06T10:12:02.824Z,38.50
2018-07-06T10:14:30.810Z,38.30
2018-07-06T10:16:58.867Z,42.20
2018-07-06T10:19:27.019Z,45.50
2018-07-06T10:21:55.176Z,48.40
2018-07-06T10:24:23.328Z,48.40
2018-07-06T10:26:51.261Z,46.70
2018-07-06T10:29:29.629Z,41.70
2018-07-06T10:32:22.617Z,37.60
2018-07-06T10:34:50.549Z,35.90
2018-07-06T10:37:18.827Z,35.50
2018-07-06T10:39:47.238Z,35.70
2018-07-06T10:42:15.039Z,31.80
2018-07-06T10:47:10.931Z,31.00
2018-07-06T10:49:38.699Z,29.90
2018-07-06T10:52:07.249Z,30.10
2018-07-06T10:54:35.499Z,29.20
2018-07-06T10:57:03.392Z,29.40
2018-07-06T10:59:31.147Z,29.60
2018-07-06T11:01:58.913Z,28.20
2018-07-06T11:04:26.658Z,28.40
2018-07-06T11:06:54.942Z,26.80
2018-07-06T11:09:22.787Z,26.60
2018-07-06T11:11:50.804Z,28.20
2018-07-06T11:14:18.854Z,26.40
2018-07-06T11:16:46.639Z,28.50
2018-07-06T11:19:14.355Z,25.20
2018-07-06T11:21:42.116Z,26.90
2018-07-06T11:24:09.929Z,28.30
2018-07-06T11:26:37.788Z,27.80
2018-07-06T11:29:05.875Z,27.20
2018-07-06T11:31:33.607Z,28.40
2018-07-06T11:36:29.739Z,25.80
2018-07-06T11:38:57.860Z,29.40
2018-07-06T11:41:25.677Z,29.60
2018-07-06T11:43:53.453Z,28.30
2018-07-06T11:46:21.268Z,26.20
2018-07-06T11:48:49.104Z,25.90
2018-07-06T11:51:16.973Z,25.30
2018-07-06T11:53:44.771Z,25.90
2018-07-06T11:56:12.560Z,26.60
2018-07-06T11:58:41.090Z,24.50
2018-07-06T12:01:09.092Z,24.00
2018-07-06T12:03:37.036Z,24.80
2018-07-06T12:06:04.952Z,22.80
2018-07-06T12:08:32.683Z,22.00
2018-07-06T12:11:00.562Z,21.30
2018-07-06T12:13:28.371Z,21.00
2018-07-06T12:15:56.183Z,21.90
2018-07-06T12:18:26.844Z,23.80
2018-07-06T12:20:55.917Z,24.90
2018-07-06T12:25:52.091Z,25.60
2018-07-06T12:28:19.921Z,26.10
2018-07-06T12:30:47.737Z,27.30
2018-07-06T12:35:44.061Z,24.70
2018-07-06T12:38:11.829Z,24.10
2018-07-06T12:40:40.310Z,22.90
2018-07-06T12:43:08.414Z,22.70
2018-07-06T12:45:36.280Z,23.70
2018-07-06T12:48:04.620Z,23.50
2018-07-06T12:50:32.511Z,24.60
2018-07-06T12:55:28.026Z,26.30
2018-07-06T12:57:56.901Z,26.20
2018-07-06T13:00:24.707Z,23.90
2018-07-06T13:02:52.517Z,25.70
2018-07-06T13:05:20.287Z,26.00
2018-07-06T13:07:48.108Z,24.10
2018-07-06T13:10:15.934Z,23.30
2018-07-06T13:15:11.444Z,24.90
2018-07-06T13:17:39.286Z,25.90
2018-07-06T13:20:07.105Z,26.00
2018-07-06T13:22:34.890Z,25.60
2018-07-06T13:25:02.687Z,26.30
2018-07-06T13:27:30.496Z,25.70
2018-07-06T13:29:58.390Z,26.40
2018-07-06T13:32:26.235Z,27.50
2018-07-06T13:34:54.032Z,26.30
2018-07-06T13:37:21.793Z,27.80
2018-07-06T13:39:49.555Z,28.20
2018-07-06T13:42:17.347Z,28.70
2018-07-06T13:44:45.036Z,28.80
2018-07-06T13:47:12.787Z,28.10
2018-07-06T13:49:40.500Z,29.50
2018-07-06T13:52:08.259Z,30.00
2018-07-06T13:54:36.237Z,31.00
2018-07-06T13:57:03.947Z,31.00
2018-07-06T13:59:31.751Z,30.30
2018-07-06T14:01:59.549Z,30.80
2018-07-06T14:04:27.362Z,30.00
2018-07-06T14:06:55.140Z,28.10
2018-07-06T14:09:22.962Z,26.80
2018-07-06T14:11:50.759Z,26.70
2018-07-06T14:14:18.591Z,26.30
2018-07-06T14:16:46.336Z,26.40
2018-07-06T14:19:14.204Z,26.90
2018-07-06T14:21:41.997Z,26.80
2018-07-06T14:24:09.808Z,26.40
2018-07-06T14:26:37.600Z,26.20
2018-07-06T14:29:05.437Z,25.80
2018-07-06T14:31:33.194Z,26.30
2018-07-06T14:34:00.965Z,25.60
2018-07-06T14:36:28.729Z,26.30
2018-07-06T14:38:56.492Z,27.80
2018-07-06T14:41:24.291Z,28.00
2018-07-06T14:43:52.055Z,28.20
2018-07-06T14:46:19.840Z,29.60
2018-07-06T14:48:49.096Z,31.20
2018-07-06T14:51:16.899Z,31.40
2018-07-06T14:53:44.721Z,32.40
2018-07-06T14:56:12.497Z,32.50
2018-07-06T14:58:40.384Z,33.30
2018-07-06T15:01:08.167Z,33.90
2018-07-06T15:03:35.960Z,34.10
2018-07-06T15:06:03.707Z,35.30
2018-07-06T15:08:31.490Z,36.60
2018-07-06T15:10:59.246Z,37.50
2018-07-06T15:13:27.385Z,37.50
2018-07-06T15:15:55.148Z,39.40
2018-07-06T15:18:23.000Z,39.90
2018-07-06T15:20:50.785Z,41.20
2018-07-06T15:23:18.568Z,40.90
2018-07-06T15:25:46.316Z,40.60
2018-07-06T15:28:14.107Z,40.70
2018-07-06T15:30:41.827Z,40.50
2018-07-06T15:35:37.300Z,39.60
2018-07-06T15:38:05.127Z,38.90
2018-07-06T15:40:32.887Z,36.50
2018-07-06T15:43:00.696Z,35.20
2018-07-06T15:45:28.447Z,34.20
2018-07-06T15:47:56.217Z,33.80
2018-07-06T15:50:23.994Z,33.50
2018-07-06T15:52:51.926Z,34.40
2018-07-06T15:55:19.731Z,34.20
2018-07-06T15:57:47.499Z,33.00
2018-07-06T16:00:15.307Z,32.40
2018-07-06T16:05:10.692Z,34.60
2018-07-06T16:07:38.519Z,35.60
2018-07-06T16:10:06.432Z,34.80
2018-07-06T16:12:34.176Z,34.70
2018-07-06T16:15:01.957Z,34.20
2018-07-06T16:17:29.781Z,34.20
2018-07-06T16:19:57.659Z,33.40
2018-07-06T16:22:25.512Z,34.20
2018-07-06T16:24:53.358Z,34.20
2018-07-06T16:27:21.075Z,34.20
2018-07-06T16:29:48.851Z,34.80
2018-07-06T16:32:16.644Z,35.20
2018-07-06T16:39:39.772Z,37.50
2018-07-06T16:42:07.550Z,36.70
2018-07-06T16:44:35.311Z,37.70
2018-07-06T16:47:03.227Z,37.80
2018-07-06T16:49:31.047Z,37.50
2018-07-06T16:51:58.795Z,37.20
2018-07-06T16:54:26.583Z,37.50
2018-07-06T16:56:54.344Z,37.20
2018-07-06T16:59:22.120Z,37.70
2018-07-06T17:01:49.909Z,37.10
2018-07-06T17:04:17.792Z,37.70
2018-07-06T17:09:13.244Z,37.50
2018-07-06T17:11:41.000Z,35.90
2018-07-06T17:14:08.774Z,35.70
2018-07-06T17:16:36.743Z,34.90
2018-07-06T17:19:04.520Z,34.40
2018-07-06T17:21:33.649Z,34.20
2018-07-06T17:24:01.463Z,34.00
2018-07-06T17:26:29.255Z,33.30
2018-07-06T17:28:57.071Z,33.60
2018-07-06T17:33:52.495Z,33.80
2018-07-06T17:36:20.262Z,34.00
2018-07-06T17:38:48.106Z,35.00
2018-07-06T17:41:15.860Z,35.30
2018-07-06T17:43:43.700Z,35.20
2018-07-06T17:46:11.467Z,35.20
2018-07-06T17:48:39.331Z,35.20
2018-07-06T17:51:07.200Z,35.60
2018-07-06T17:53:35.063Z,36.30
2018-07-06T17:56:02.831Z,36.90
2018-07-06T17:58:32.830Z,37.30
2018-07-06T18:01:00.692Z,37.20
2018-07-06T18:03:28.557Z,37.20
2018-07-06T18:05:56.348Z,36.70
2018-07-06T18:08:24.140Z,36.90
2018-07-06T18:10:51.910Z,37.40
2018-07-06T18:13:19.781Z,37.20
2018-07-06T18:15:49.284Z,36.80
2018-07-06T18:18:18.349Z,37.10
2018-07-06T18:23:14.131Z,37.10
2018-07-06T18:25:41.900Z,37.10
2018-07-06T18:28:09.664Z,36.50
2018-07-06T18:30:37.455Z,36.30
2018-07-06T18:33:05.324Z,35.80
2018-07-06T18:35:33.110Z,36.00
2018-07-06T18:38:00.845Z,36.30
2018-07-06T18:42:56.338Z,36.00
2018-07-06T18:45:24.188Z,35.80
2018-07-06T18:47:51.977Z,35.90
2018-07-06T18:50:19.734Z,35.20
2018-07-06T18:52:47.479Z,34.90
2018-07-06T18:55:15.281Z,35.70
2018-07-06T18:57:43.045Z,35.60
2018-07-06T19:02:38.778Z,36.10
2018-07-06T19:10:02.274Z,37.40
2018-07-06T19:12:30.027Z,37.50
2018-07-06T19:14:57.867Z,37.40
2018-07-06T19:17:25.681Z,37.50
2018-07-06T19:19:53.542Z,38.30
2018-07-06T19:22:21.400Z,38.20
2018-07-06T19:24:49.207Z,38.90
2018-07-06T19:27:16.965Z,39.20
2018-07-06T19:29:44.702Z,39.20
2018-07-06T19:34:40.155Z,40.80
2018-07-06T19:37:08.047Z,40.50
2018-07-06T19:39:35.900Z,40.70
2018-07-06T19:42:03.657Z,41.00
2018-07-06T19:44:31.420Z,41.40
2018-07-06T19:46:59.312Z,41.60
2018-07-06T19:49:27.095Z,41.90
2018-07-06T19:51:54.946Z,42.00
2018-07-06T19:54:23.331Z,42.50
2018-07-06T19:56:51.115Z,42.20
2018-07-06T19:59:18.953Z,42.40
2018-07-06T20:01:46.781Z,42.50
2018-07-06T20:04:14.586Z,42.70
2018-07-06T20:06:42.371Z,43.20
2018-07-06T20:09:10.144Z,43.10
2018-07-06T20:11:37.972Z,43.00
2018-07-06T20:14:05.769Z,43.60
2018-07-06T20:16:33.546Z,43.30
2018-07-06T20:19:01.923Z,43.50
2018-07-06T20:21:29.709Z,43.50
2018-07-06T20:23:57.525Z,44.40
2018-07-06T20:26:25.318Z,44.20
2018-07-06T20:28:53.122Z,43.80
2018-07-06T20:31:20.895Z,44.00
2018-07-06T20:33:48.788Z,44.20
2018-07-06T20:36:16.580Z,44.50
2018-07-06T20:41:12.172Z,45.00
2018-07-06T20:43:40.179Z,44.60
2018-07-06T20:46:07.968Z,44.50
2018-07-06T20:51:03.485Z,44.30
2018-07-06T20:53:31.256Z,44.40
2018-07-06T20:55:59.515Z,44.90
2018-07-06T20:58:27.911Z,44.80
2018-07-06T21:00:56.203Z,45.10
2018-07-06T21:03:24.348Z,45.70
2018-07-06T21:05:52.507Z,46.20
2018-07-06T21:08:20.512Z,46.50
2018-07-06T21:10:48.591Z,47.10
2018-07-06T21:13:16.490Z,46.90
2018-07-06T21:15:44.690Z,47.20
2018-07-06T21:18:12.888Z,47.20
2018-07-06T21:23:09.332Z,47.60
2018-07-06T21:25:37.709Z,47.80
2018-07-06T21:28:05.862Z,48.00
2018-07-06T21:30:34.857Z,47.50
2018-07-06T21:35:31.072Z,49.20
2018-07-06T21:37:59.129Z,48.30
2018-07-06T21:40:27.150Z,48.60
2018-07-06T21:42:55.125Z,48.70
2018-07-06T21:45:23.230Z,49.20
2018-07-06T21:47:51.107Z,49.60
2018-07-06T21:50:19.648Z,49.90
2018-07-06T21:52:47.781Z,49.90
2018-07-06T21:55:16.213Z,49.80
2018-07-06T21:57:44.511Z,49.90
2018-07-06T22:00:12.548Z,49.60
2018-07-06T22:02:40.824Z,50.00
2018-07-06T22:05:08.931Z,49.90
2018-07-06T22:07:37.187Z,50.20
2018-07-06T22:10:05.550Z,50.90
2018-07-06T22:12:34.108Z,51.20
2018-07-06T22:15:02.025Z,50.90
2018-07-06T22:17:29.891Z,51.90
2018-07-06T22:19:57.797Z,52.50
2018-07-06T22:22:25.619Z,53.00
2018-07-06T22:27:21.144Z,53.90
2018-07-06T22:29:48.992Z,53.70
2018-07-06T22:32:16.760Z,54.30
2018-07-06T22:34:45.667Z,55.00
2018-07-06T22:37:13.489Z,55.40
2018-07-06T22:39:41.332Z,56.20
2018-07-06T22:42:09.392Z,56.70
2018-07-06T22:44:37.487Z,57.40
2018-07-06T22:47:05.389Z,57.70
2018-07-06T22:49:33.209Z,57.80
2018-07-06T22:56:56.304Z,60.30
2018-07-06T23:01:51.816Z,60.00
2018-07-06T23:06:47.321Z,61.20
2018-07-06T23:09:15.111Z,61.70
2018-07-06T23:14:10.652Z,62.60
2018-07-06T23:21:33.802Z,63.70
2018-07-06T23:24:01.656Z,63.50
2018-07-06T23:26:29.475Z,63.80
2018-07-06T23:31:24.919Z,65.60
2018-07-06T23:33:52.701Z,65.10
2018-07-06T23:36:20.588Z,65.80
2018-07-06T23:38:48.376Z,66.10
2018-07-06T23:46:11.589Z,67.70
2018-07-06T23:51:07.203Z,68.80
2018-07-06T23:56:02.800Z,68.30
2018-07-06T23:58:30.635Z,68.50
